Terminal Aerodrome Forecast
Issued by NWS Tampa Bay Area, FL

Home | Current Version | Previous Version | Text Only | Print | Product List | Glossary On
Versions: 1 2 3 4 5 6 7 8 9 10 11 12 13 14 15 16 17 18 19 20
000
FTUS42 KTBW 291700
TAFFMY
TAF
KFMY 291740Z 2918/3018 27013KT P6SM VCTS SCT030CB BKN100
      TEMPO 2918/2921 VRB15G25KT 4SM TSRA BKN025CB
     FM292200 27010KT P6SM VCTS SCT030CB BKN100
     FM300100 24005KT P6SM VCSH SCT025 BKN100
     FM301300 VRB05KT P6SM VCTS SCT025CB BKN050=

USA.gov is the U.S. government's official web portal to all federal, state and local government web resources and services.